Terminal Aerodrome Forecast
Issued by NWS

Home | Current Version | Previous Version | Text Only | Print | Product List | Glossary On
Versions: 1 2 3 4 5 6 7 8 9 10 11 12 13 14 15 16
000
FTUS45 KREV 230522
TAFMMH
TAF
KMMH 230522Z 2306/2406 20012KT 1/2SM SN FZFG VV005
      TEMPO 2306/2310 2SM -SN BR SCT008 BKN015
     FM231000 29007KT 3SM -SN SCT010 BKN025
     FM231800 30009KT P6SM VCSH SCT028 BKN060=

USA.gov is the U.S. government's official web portal to all federal, state and local government web resources and services.